sensor_id;sensor_type;location;lat;lon;timestamp;pressure;altitude;pressure_sealevel;temperature;humidity
43364;BME280;40636;52.424;-1.948;2024-01-06T00:02:08;99540.50;;;5.80;86.77
43364;BME280;40636;52.424;-1.948;2024-01-06T00:04:35;99545.66;;;5.83;86.69
43364;BME280;40636;52.424;-1.948;2024-01-06T00:07:02;99552.53;;;5.86;86.64
43364;BME280;40636;52.424;-1.948;2024-01-06T00:09:28;99553.41;;;5.86;86.81
43364;BME280;40636;52.424;-1.948;2024-01-06T00:11:55;99553.41;;;5.88;86.45
43364;BME280;40636;52.424;-1.948;2024-01-06T00:14:22;99543.94;;;5.88;86.33
43364;BME280;40636;52.424;-1.948;2024-01-06T00:16:49;99547.38;;;5.89;86.41
43364;BME280;40636;52.424;-1.948;2024-01-06T00:19:16;99554.25;;;5.88;86.55
43364;BME280;40636;52.424;-1.948;2024-01-06T00:21:44;99569.72;;;5.87;86.08
43364;BME280;40636;52.424;-1.948;2024-01-06T00:24:11;99574.88;;;5.85;85.92
43364;BME280;40636;52.424;-1.948;2024-01-06T00:26:38;99575.72;;;5.86;86.23
43364;BME280;40636;52.424;-1.948;2024-01-06T00:29:04;99588.63;;;5.86;86.05
43364;BME280;40636;52.424;-1.948;2024-01-06T00:31:31;99594.63;;;5.85;86.02
43364;BME280;40636;52.424;-1.948;2024-01-06T00:33:58;99593.75;;;5.83;86.38
43364;BME280;40636;52.424;-1.948;2024-01-06T00:36:25;99604.94;;;5.83;85.91
43364;BME280;40636;52.424;-1.948;2024-01-06T00:38:52;99604.06;;;5.83;86.05
43364;BME280;40636;52.424;-1.948;2024-01-06T00:41:18;99604.94;;;5.83;86.23
43364;BME280;40636;52.424;-1.948;2024-01-06T00:43:45;99608.38;;;5.85;86.58
43364;BME280;40636;52.424;-1.948;2024-01-06T00:46:12;99604.09;;;5.86;85.59
43364;BME280;40636;52.424;-1.948;2024-01-06T00:48:39;99620.41;;;5.85;86.08
43364;BME280;40636;52.424;-1.948;2024-01-06T00:51:06;99610.97;;;5.85;86.18
43364;BME280;40636;52.424;-1.948;2024-01-06T00:53:33;99612.69;;;5.86;86.29
43364;BME280;40636;52.424;-1.948;2024-01-06T00:55:59;99614.41;;;5.86;86.19
43364;BME280;40636;52.424;-1.948;2024-01-06T00:58:26;99609.22;;;5.84;86.39
43364;BME280;40636;52.424;-1.948;2024-01-06T01:00:53;99618.69;;;5.82;86.34
43364;BME280;40636;52.424;-1.948;2024-01-06T01:03:20;99616.97;;;5.83;86.20
43364;BME280;40636;52.424;-1.948;2024-01-06T01:05:47;99612.66;;;5.83;86.42
43364;BME280;40636;52.424;-1.948;2024-01-06T01:08:13;99617.81;;;5.85;86.30
43364;BME280;40636;52.424;-1.948;2024-01-06T01:10:40;99623.84;;;5.87;86.56
43364;BME280;40636;52.424;-1.948;2024-01-06T01:13:07;99629.00;;;5.88;86.47
43364;BME280;40636;52.424;-1.948;2024-01-06T01:15:36;99635.03;;;5.89;86.53
43364;BME280;40636;52.424;-1.948;2024-01-06T01:18:03;99627.28;;;5.89;86.31
43364;BME280;40636;52.424;-1.948;2024-01-06T01:20:30;99635.03;;;5.89;86.11
43364;BME280;40636;52.424;-1.948;2024-01-06T01:22:57;99631.59;;;5.88;86.34
43364;BME280;40636;52.424;-1.948;2024-01-06T01:25:23;99631.59;;;5.87;86.31
43364;BME280;40636;52.424;-1.948;2024-01-06T01:27:50;99641.03;;;5.85;86.26
43364;BME280;40636;52.424;-1.948;2024-01-06T01:30:17;99641.03;;;5.85;86.30
43364;BME280;40636;52.424;-1.948;2024-01-06T01:32:44;99633.28;;;5.83;86.32
43364;BME280;40636;52.424;-1.948;2024-01-06T01:35:12;99640.16;;;5.83;86.37
43364;BME280;40636;52.424;-1.948;2024-01-06T01:37:39;99643.59;;;5.82;86.51
43364;BME280;40636;52.424;-1.948;2024-01-06T01:40:06;99649.59;;;5.82;86.34
43364;BME280;40636;52.424;-1.948;2024-01-06T01:42:34;99664.22;;;5.82;86.63
43364;BME280;40636;52.424;-1.948;2024-01-06T01:45:00;99653.03;;;5.80;86.38
43364;BME280;40636;52.424;-1.948;2024-01-06T01:47:27;99660.75;;;5.80;86.58
43364;BME280;40636;52.424;-1.948;2024-01-06T01:49:54;99664.19;;;5.79;86.01
43364;BME280;40636;52.424;-1.948;2024-01-06T01:52:22;99665.06;;;5.79;86.38
43364;BME280;40636;52.424;-1.948;2024-01-06T01:54:51;99671.91;;;5.79;86.30
43364;BME280;40636;52.424;-1.948;2024-01-06T01:57:21;99681.31;;;5.77;86.29
43364;BME280;40636;52.424;-1.948;2024-01-06T01:59:51;99689.94;;;5.77;86.21
43364;BME280;40636;52.424;-1.948;2024-01-06T02:02:19;99687.34;;;5.76;86.27
43364;BME280;40636;52.424;-1.948;2024-01-06T02:04:47;99677.91;;;5.78;86.08
43364;BME280;40636;52.424;-1.948;2024-01-06T02:07:14;99684.78;;;5.77;86.34
43364;BME280;40636;52.424;-1.948;2024-01-06T02:09:41;99696.78;;;5.75;86.13
43364;BME280;40636;52.424;-1.948;2024-01-06T02:12:07;99688.19;;;5.76;86.28
43364;BME280;40636;52.424;-1.948;2024-01-06T02:14:34;99706.25;;;5.76;86.05
43364;BME280;40636;52.424;-1.948;2024-01-06T02:17:01;99707.09;;;5.73;86.23
43364;BME280;40636;52.424;-1.948;2024-01-06T02:19:28;99705.38;;;5.74;86.38
43364;BME280;40636;52.424;-1.948;2024-01-06T02:21:54;99698.47;;;5.71;85.97
43364;BME280;40636;52.424;-1.948;2024-01-06T02:24:21;99707.94;;;5.71;85.93
43364;BME280;40636;52.424;-1.948;2024-01-06T02:26:48;99718.22;;;5.69;85.83
43364;BME280;40636;52.424;-1.948;2024-01-06T02:29:15;99715.66;;;5.69;86.02
43364;BME280;40636;52.424;-1.948;2024-01-06T02:31:42;99721.66;;;5.68;86.30
43364;BME280;40636;52.424;-1.948;2024-01-06T02:34:09;99720.81;;;5.69;85.96
43364;BME280;40636;52.424;-1.948;2024-01-06T02:36:36;99721.66;;;5.68;85.96
43364;BME280;40636;52.424;-1.948;2024-01-06T02:39:03;99727.66;;;5.69;85.99
43364;BME280;40636;52.424;-1.948;2024-01-06T02:41:29;99732.84;;;5.70;85.78
43364;BME280;40636;52.424;-1.948;2024-01-06T02:43:56;99738.00;;;5.70;85.75
43364;BME280;40636;52.424;-1.948;2024-01-06T02:46:23;99738.84;;;5.69;85.81
43364;BME280;40636;52.424;-1.948;2024-01-06T02:48:50;99741.41;;;5.69;86.14
43364;BME280;40636;52.424;-1.948;2024-01-06T02:51:17;99746.56;;;5.68;85.87
43364;BME280;40636;52.424;-1.948;2024-01-06T02:53:44;99740.53;;;5.66;85.84
43364;BME280;40636;52.424;-1.948;2024-01-06T02:56:11;99744.81;;;5.65;85.86
43364;BME280;40636;52.424;-1.948;2024-01-06T02:58:39;99754.25;;;5.63;85.57
43364;BME280;40636;52.424;-1.948;2024-01-06T03:01:06;99755.09;;;5.62;85.82
43364;BME280;40636;52.424;-1.948;2024-01-06T03:03:33;99749.09;;;5.60;85.73
43364;BME280;40636;52.424;-1.948;2024-01-06T03:06:00;99760.22;;;5.58;85.79
43364;BME280;40636;52.424;-1.948;2024-01-06T03:08:27;99757.63;;;5.55;85.65
43364;BME280;40636;52.424;-1.948;2024-01-06T03:10:53;99760.19;;;5.52;85.62
43364;BME280;40636;52.424;-1.948;2024-01-06T03:13:20;99770.44;;;5.47;85.57
43364;BME280;40636;52.424;-1.948;2024-01-06T03:15:47;99769.56;;;5.44;85.66
43364;BME280;40636;52.424;-1.948;2024-01-06T03:18:14;99772.13;;;5.42;85.86
43364;BME280;40636;52.424;-1.948;2024-01-06T03:20:41;99764.38;;;5.39;85.83
43364;BME280;40636;52.424;-1.948;2024-01-06T03:23:08;99763.50;;;5.35;85.72
43364;BME280;40636;52.424;-1.948;2024-01-06T03:25:34;99771.19;;;5.32;85.67
43364;BME280;40636;52.424;-1.948;2024-01-06T03:28:01;99767.72;;;5.29;85.71
43364;BME280;40636;52.424;-1.948;2024-01-06T03:30:28;99777.16;;;5.27;85.84
43364;BME280;40636;52.424;-1.948;2024-01-06T03:32:55;99774.56;;;5.27;85.86
43364;BME280;40636;52.424;-1.948;2024-01-06T03:35:22;99787.44;;;5.25;86.17
43364;BME280;40636;52.424;-1.948;2024-01-06T03:37:48;99785.69;;;5.23;86.06
43364;BME280;40636;52.424;-1.948;2024-01-06T03:40:16;99786.56;;;5.22;86.10
43364;BME280;40636;52.424;-1.948;2024-01-06T03:42:43;99791.69;;;5.22;86.25
43364;BME280;40636;52.424;-1.948;2024-01-06T03:45:10;99791.69;;;5.22;86.12
43364;BME280;40636;52.424;-1.948;2024-01-06T03:47:36;99791.69;;;5.20;85.91
43364;BME280;40636;52.424;-1.948;2024-01-06T03:50:04;99792.50;;;5.18;85.79
43364;BME280;40636;52.424;-1.948;2024-01-06T03:52:31;99795.91;;;5.15;85.68
43364;BME280;40636;52.424;-1.948;2024-01-06T03:54:58;99806.16;;;5.11;86.14
43364;BME280;40636;52.424;-1.948;2024-01-06T03:57:24;99808.69;;;5.06;85.91
43364;BME280;40636;52.424;-1.948;2024-01-06T03:59:51;99808.66;;;5.03;86.00
43364;BME280;40636;52.424;-1.948;2024-01-06T04:02:18;99807.72;;;4.96;85.91
43364;BME280;40636;52.424;-1.948;2024-01-06T04:04:45;99805.13;;;4.95;85.84
43364;BME280;40636;52.424;-1.948;2024-01-06T04:07:12;99810.25;;;4.92;85.70
43364;BME280;40636;52.424;-1.948;2024-01-06T04:09:42;99818.78;;;4.89;86.22
43364;BME280;40636;52.424;-1.948;2024-01-06T04:12:08;99820.50;;;4.87;85.76
43364;BME280;40636;52.424;-1.948;2024-01-06T04:14:35;99823.91;;;4.86;86.20
43364;BME280;40636;52.424;-1.948;2024-01-06T04:17:02;99829.88;;;4.84;85.83
43364;BME280;40636;52.424;-1.948;2024-01-06T04:19:29;99817.03;;;4.84;86.21
43364;BME280;40636;52.424;-1.948;2024-01-06T04:21:56;99834.16;;;4.83;86.17
43364;BME280;40636;52.424;-1.948;2024-01-06T04:24:23;99836.75;;;4.85;86.19
43364;BME280;40636;52.424;-1.948;2024-01-06T04:26:49;99840.19;;;4.85;86.22
43364;BME280;40636;52.424;-1.948;2024-01-06T04:29:16;99837.63;;;4.85;86.07
43364;BME280;40636;52.424;-1.948;2024-01-06T04:31:43;99847.09;;;4.88;86.33
43364;BME280;40636;52.424;-1.948;2024-01-06T04:34:10;99835.03;;;4.85;86.18
43364;BME280;40636;52.424;-1.948;2024-01-06T04:36:37;99832.44;;;4.82;85.90
43364;BME280;40636;52.424;-1.948;2024-01-06T04:39:04;99828.13;;;4.80;85.92
43364;BME280;40636;52.424;-1.948;2024-01-06T04:41:31;99835.81;;;4.76;85.69
43364;BME280;40636;52.424;-1.948;2024-01-06T04:43:57;99847.78;;;4.74;86.07
43364;BME280;40636;52.424;-1.948;2024-01-06T04:46:24;99840.88;;;4.69;85.84
43364;BME280;40636;52.424;-1.948;2024-01-06T04:48:51;99844.25;;;4.65;85.72
43364;BME280;40636;52.424;-1.948;2024-01-06T04:51:18;99844.13;;;4.59;85.53
43364;BME280;40636;52.424;-1.948;2024-01-06T04:53:44;99847.53;;;4.56;85.77
43364;BME280;40636;52.424;-1.948;2024-01-06T04:56:11;99846.66;;;4.54;85.43
43364;BME280;40636;52.424;-1.948;2024-01-06T04:58:38;99847.47;;;4.52;85.57
43364;BME280;40636;52.424;-1.948;2024-01-06T05:01:05;99850.88;;;4.49;85.70
43364;BME280;40636;52.424;-1.948;2024-01-06T05:03:32;99852.50;;;4.44;85.80
43364;BME280;40636;52.424;-1.948;2024-01-06T05:05:59;99857.63;;;4.42;85.31
43364;BME280;40636;52.424;-1.948;2024-01-06T05:08:25;99854.16;;;4.39;85.52
43364;BME280;40636;52.424;-1.948;2024-01-06T05:10:53;99865.28;;;4.36;85.48
43364;BME280;40636;52.424;-1.948;2024-01-06T05:13:20;99873.81;;;4.34;85.52
43364;BME280;40636;52.424;-1.948;2024-01-06T05:15:47;99872.88;;;4.29;85.42
43364;BME280;40636;52.424;-1.948;2024-01-06T05:18:14;99871.09;;;4.25;85.88
43364;BME280;40636;52.424;-1.948;2024-01-06T05:20:41;99875.31;;;4.20;85.51
43364;BME280;40636;52.424;-1.948;2024-01-06T05:23:08;99884.66;;;4.15;85.68
43364;BME280;40636;52.424;-1.948;2024-01-06T05:25:34;99886.34;;;4.12;85.77
43364;BME280;40636;52.424;-1.948;2024-01-06T05:28:01;99888.00;;;4.09;85.57
43364;BME280;40636;52.424;-1.948;2024-01-06T05:30:28;99887.97;;;4.06;86.04
43364;BME280;40636;52.424;-1.948;2024-01-06T05:32:55;99891.31;;;4.03;86.18
43364;BME280;40636;52.424;-1.948;2024-01-06T05:35:22;99904.97;;;4.01;85.88
43364;BME280;40636;52.424;-1.948;2024-01-06T05:37:49;99896.31;;;3.94;86.11
43364;BME280;40636;52.424;-1.948;2024-01-06T05:40:16;99886.81;;;3.90;85.78
43364;BME280;40636;52.424;-1.948;2024-01-06T05:42:43;99888.47;;;3.87;85.75
43364;BME280;40636;52.424;-1.948;2024-01-06T05:45:10;99901.38;;;3.90;86.01
43364;BME280;40636;52.424;-1.948;2024-01-06T05:47:39;99897.91;;;3.88;86.14
43364;BME280;40636;52.424;-1.948;2024-01-06T05:50:06;99903.88;;;3.85;86.56
43364;BME280;40636;52.424;-1.948;2024-01-06T05:52:36;99908.94;;;3.80;86.47
43364;BME280;40636;52.424;-1.948;2024-01-06T05:55:04;99908.03;;;3.78;86.18
43364;BME280;40636;52.424;-1.948;2024-01-06T05:57:31;99909.72;;;3.76;86.06
43364;BME280;40636;52.424;-1.948;2024-01-06T05:59:59;99919.09;;;3.74;86.28
43364;BME280;40636;52.424;-1.948;2024-01-06T06:02:26;99919.97;;;3.75;86.29
43364;BME280;40636;52.424;-1.948;2024-01-06T06:04:53;99921.63;;;3.71;86.80
43364;BME280;40636;52.424;-1.948;2024-01-06T06:07:19;99916.47;;;3.71;86.43
43364;BME280;40636;52.424;-1.948;2024-01-06T06:09:47;99931.88;;;3.70;86.19
43364;BME280;40636;52.424;-1.948;2024-01-06T06:12:14;99923.28;;;3.69;86.80
43364;BME280;40636;52.424;-1.948;2024-01-06T06:14:41;99934.41;;;3.68;86.51
43364;BME280;40636;52.424;-1.948;2024-01-06T06:17:08;99933.53;;;3.68;86.47
43364;BME280;40636;52.424;-1.948;2024-01-06T06:19:37;99933.50;;;3.66;86.55
43364;BME280;40636;52.424;-1.948;2024-01-06T06:22:04;99935.13;;;3.61;86.18
43364;BME280;40636;52.424;-1.948;2024-01-06T06:24:31;99942.81;;;3.60;86.45
43364;BME280;40636;52.424;-1.948;2024-01-06T06:26:58;99941.06;;;3.57;86.17
43364;BME280;40636;52.424;-1.948;2024-01-06T06:29:25;99947.91;;;3.57;86.55
43364;BME280;40636;52.424;-1.948;2024-01-06T06:31:52;99953.91;;;3.57;86.56
43364;BME280;40636;52.424;-1.948;2024-01-06T06:34:18;99956.47;;;3.57;87.01
43364;BME280;40636;52.424;-1.948;2024-01-06T06:36:45;99954.72;;;3.56;87.09
43364;BME280;40636;52.424;-1.948;2024-01-06T06:39:12;99961.56;;;3.56;86.88
43364;BME280;40636;52.424;-1.948;2024-01-06T06:41:39;99973.56;;;3.57;86.63
43364;BME280;40636;52.424;-1.948;2024-01-06T06:44:06;99978.69;;;3.55;87.07
43364;BME280;40636;52.424;-1.948;2024-01-06T06:46:33;99975.16;;;3.50;86.31
43364;BME280;40636;52.424;-1.948;2024-01-06T06:49:00;99975.91;;;3.46;86.88
43364;BME280;40636;52.424;-1.948;2024-01-06T06:51:27;99983.56;;;3.43;86.85
43364;BME280;40636;52.424;-1.948;2024-01-06T06:53:54;99986.91;;;3.39;86.65
43364;BME280;40636;52.424;-1.948;2024-01-06T06:56:21;99985.13;;;3.36;86.93
43364;BME280;40636;52.424;-1.948;2024-01-06T06:58:48;99987.66;;;3.35;86.29
43364;BME280;40636;52.424;-1.948;2024-01-06T07:01:15;99994.50;;;3.34;86.89
43364;BME280;40636;52.424;-1.948;2024-01-06T07:03:42;99991.91;;;3.33;86.61
43364;BME280;40636;52.424;-1.948;2024-01-06T07:06:13;99998.72;;;3.31;86.85
43364;BME280;40636;52.424;-1.948;2024-01-06T07:08:41;100005.56;;;3.32;87.27
43364;BME280;40636;52.424;-1.948;2024-01-06T07:11:08;100018.38;;;3.30;86.82
43364;BME280;40636;52.424;-1.948;2024-01-06T07:13:37;100021.81;;;3.31;87.11
43364;BME280;40636;52.424;-1.948;2024-01-06T07:16:05;100022.69;;;3.31;87.00
43364;BME280;40636;52.424;-1.948;2024-01-06T07:18:44;100036.38;;;3.32;86.74
43364;BME280;40636;52.424;-1.948;2024-01-06T07:21:12;100042.34;;;3.31;87.53
43364;BME280;40636;52.424;-1.948;2024-01-06T07:23:39;100037.25;;;3.32;87.65
43364;BME280;40636;52.424;-1.948;2024-01-06T07:26:06;100037.25;;;3.32;87.06
43364;BME280;40636;52.424;-1.948;2024-01-06T07:28:34;100046.69;;;3.33;87.30
43364;BME280;40636;52.424;-1.948;2024-01-06T07:31:01;100051.81;;;3.33;87.37
43364;BME280;40636;52.424;-1.948;2024-01-06T07:33:28;100058.72;;;3.36;87.33
43364;BME280;40636;52.424;-1.948;2024-01-06T07:35:55;100067.28;;;3.36;87.76
43364;BME280;40636;52.424;-1.948;2024-01-06T07:38:22;100077.59;;;3.38;87.58
43364;BME280;40636;52.424;-1.948;2024-01-06T07:40:48;100080.22;;;3.41;87.84
43364;BME280;40636;52.424;-1.948;2024-01-06T07:43:15;100077.66;;;3.41;87.61
43364;BME280;40636;52.424;-1.948;2024-01-06T07:45:42;100086.28;;;3.44;87.50
43364;BME280;40636;52.424;-1.948;2024-01-06T07:48:09;100081.19;;;3.46;88.00
43364;BME280;40636;52.424;-1.948;2024-01-06T07:50:36;100088.13;;;3.48;88.14
43364;BME280;40636;52.424;-1.948;2024-01-06T07:53:03;100090.75;;;3.52;88.13
43364;BME280;40636;52.424;-1.948;2024-01-06T07:55:29;100093.41;;;3.56;88.33
43364;BME280;40636;52.424;-1.948;2024-01-06T07:57:56;100098.63;;;3.61;88.30
43364;BME280;40636;52.424;-1.948;2024-01-06T08:00:23;100099.56;;;3.64;87.74
43364;BME280;40636;52.424;-1.948;2024-01-06T08:02:50;100099.63;;;3.67;87.94
43364;BME280;40636;52.424;-1.948;2024-01-06T08:05:17;100104.75;;;3.67;87.99
43364;BME280;40636;52.424;-1.948;2024-01-06T08:07:44;100107.38;;;3.69;88.09
43364;BME280;40636;52.424;-1.948;2024-01-06T08:10:11;100114.25;;;3.70;87.86
43364;BME280;40636;52.424;-1.948;2024-01-06T08:12:38;100119.41;;;3.71;87.81
43364;BME280;40636;52.424;-1.948;2024-01-06T08:15:05;100125.41;;;3.72;87.96
43364;BME280;40636;52.424;-1.948;2024-01-06T08:17:35;100128.00;;;3.73;87.90
43364;BME280;40636;52.424;-1.948;2024-01-06T08:20:02;100133.19;;;3.75;87.65
43364;BME280;40636;52.424;-1.948;2024-01-06T08:22:30;100134.09;;;3.77;87.67
43364;BME280;40636;52.424;-1.948;2024-01-06T08:24:56;100145.25;;;3.79;88.16
43364;BME280;40636;52.424;-1.948;2024-01-06T08:27:23;100150.44;;;3.80;87.74
43364;BME280;40636;52.424;-1.948;2024-01-06T08:29:50;100151.31;;;3.83;88.32
43364;BME280;40636;52.424;-1.948;2024-01-06T08:32:17;100157.38;;;3.86;87.80
43364;BME280;40636;52.424;-1.948;2024-01-06T08:34:44;100163.41;;;3.87;88.04
43364;BME280;40636;52.424;-1.948;2024-01-06T08:37:11;100169.47;;;3.90;88.01
43364;BME280;40636;52.424;-1.948;2024-01-06T08:39:38;100172.09;;;3.93;87.82
43364;BME280;40636;52.424;-1.948;2024-01-06T08:42:05;100183.28;;;3.95;87.71
43364;BME280;40636;52.424;-1.948;2024-01-06T08:44:32;100180.72;;;3.95;87.86
43364;BME280;40636;52.424;-1.948;2024-01-06T08:46:59;100184.13;;;3.96;87.86
43364;BME280;40636;52.424;-1.948;2024-01-06T08:49:26;100197.06;;;3.99;87.75
43364;BME280;40636;52.424;-1.948;2024-01-06T08:51:53;100204.78;;;4.00;87.88
43364;BME280;40636;52.424;-1.948;2024-01-06T08:54:19;100205.66;;;4.01;87.74
43364;BME280;40636;52.424;-1.948;2024-01-06T08:56:46;100206.59;;;4.04;87.50
43364;BME280;40636;52.424;-1.948;2024-01-06T08:59:13;100218.69;;;4.07;87.67
43364;BME280;40636;52.424;-1.948;2024-01-06T09:01:40;100215.22;;;4.06;88.11
43364;BME280;40636;52.424;-1.948;2024-01-06T09:04:07;100225.53;;;4.08;87.57
43364;BME280;40636;52.424;-1.948;2024-01-06T09:06:34;100223.84;;;4.08;87.59
43364;BME280;40636;52.424;-1.948;2024-01-06T09:09:01;100237.59;;;4.10;87.80
43364;BME280;40636;52.424;-1.948;2024-01-06T09:11:28;100223.88;;;4.10;87.40
43364;BME280;40636;52.424;-1.948;2024-01-06T09:13:55;100235.09;;;4.13;87.67
43364;BME280;40636;52.424;-1.948;2024-01-06T09:16:21;100242.88;;;4.17;87.42
43364;BME280;40636;52.424;-1.948;2024-01-06T09:18:48;100244.63;;;4.19;87.29
43364;BME280;40636;52.424;-1.948;2024-01-06T09:21:16;100247.19;;;4.19;87.53
43364;BME280;40636;52.424;-1.948;2024-01-06T09:23:44;100258.34;;;4.20;87.29
43364;BME280;40636;52.424;-1.948;2024-01-06T09:26:11;100249.78;;;4.19;87.38
43364;BME280;40636;52.424;-1.948;2024-01-06T09:28:38;100250.66;;;4.21;87.31
43364;BME280;40636;52.424;-1.948;2024-01-06T09:31:06;100261.00;;;4.23;87.32
43364;BME280;40636;52.424;-1.948;2024-01-06T09:33:33;100254.22;;;4.26;87.44
43364;BME280;40636;52.424;-1.948;2024-01-06T09:36:02;100268.03;;;4.31;87.62
43364;BME280;40636;52.424;-1.948;2024-01-06T09:38:28;100263.81;;;4.35;87.22
43364;BME280;40636;52.424;-1.948;2024-01-06T09:40:56;100267.28;;;4.37;87.38
43364;BME280;40636;52.424;-1.948;2024-01-06T09:43:24;100265.63;;;4.40;87.16
43364;BME280;40636;52.424;-1.948;2024-01-06T09:46:00;100272.59;;;4.44;87.52
43364;BME280;40636;52.424;-1.948;2024-01-06T09:48:29;100276.94;;;4.49;87.41
43364;BME280;40636;52.424;-1.948;2024-01-06T09:51:01;100275.31;;;4.52;87.66
43364;BME280;40636;52.424;-1.948;2024-01-06T09:53:34;100266.81;;;4.56;87.63
43364;BME280;40636;52.424;-1.948;2024-01-06T09:56:03;100272.91;;;4.61;87.61
43364;BME280;40636;52.424;-1.948;2024-01-06T09:58:31;100273.88;;;4.65;87.75
43364;BME280;40636;52.424;-1.948;2024-01-06T10:01:00;100282.53;;;4.70;87.55
43364;BME280;40636;52.424;-1.948;2024-01-06T10:03:28;100282.63;;;4.74;87.39
43364;BME280;40636;52.424;-1.948;2024-01-06T10:05:55;100281.00;;;4.78;87.26
43364;BME280;40636;52.424;-1.948;2024-01-06T10:08:27;100287.94;;;4.82;87.40
43364;BME280;40636;52.424;-1.948;2024-01-06T10:10:54;100293.13;;;4.85;87.70
43364;BME280;40636;52.424;-1.948;2024-01-06T10:13:21;100288.91;;;4.89;87.35
43364;BME280;40636;52.424;-1.948;2024-01-06T10:15:50;100291.53;;;4.92;87.82
43364;BME280;40636;52.424;-1.948;2024-01-06T10:18:18;100294.22;;;4.98;87.35
43364;BME280;40636;52.424;-1.948;2024-01-06T10:20:45;100298.63;;;5.03;87.10
43364;BME280;40636;52.424;-1.948;2024-01-06T10:23:12;100297.84;;;5.07;87.42
43364;BME280;40636;52.424;-1.948;2024-01-06T10:25:39;100306.44;;;5.09;87.38
43364;BME280;40636;52.424;-1.948;2024-01-06T10:28:12;100308.19;;;5.11;87.25
43364;BME280;40636;52.424;-1.948;2024-01-06T10:30:40;100302.22;;;5.13;86.95
43364;BME280;40636;52.424;-1.948;2024-01-06T10:33:10;100304.88;;;5.18;86.95
43364;BME280;40636;52.424;-1.948;2024-01-06T10:35:37;100311.84;;;5.22;86.69
43364;BME280;40636;52.424;-1.948;2024-01-06T10:38:04;100312.75;;;5.24;86.82
43364;BME280;40636;52.424;-1.948;2024-01-06T10:40:31;100312.81;;;5.27;86.63
43364;BME280;40636;52.424;-1.948;2024-01-06T10:43:00;100312.88;;;5.31;86.54
43364;BME280;40636;52.424;-1.948;2024-01-06T10:45:28;100315.47;;;5.33;86.42
43364;BME280;40636;52.424;-1.948;2024-01-06T10:47:59;100319.78;;;5.34;86.01
43364;BME280;40636;52.424;-1.948;2024-01-06T10:50:27;100326.72;;;5.36;86.11
43364;BME280;40636;52.424;-1.948;2024-01-06T10:52:55;100316.44;;;5.38;85.86
43364;BME280;40636;52.424;-1.948;2024-01-06T10:55:22;100321.63;;;5.41;85.62
43364;BME280;40636;52.424;-1.948;2024-01-06T10:57:51;100314.84;;;5.46;85.46
43364;BME280;40636;52.424;-1.948;2024-01-06T11:00:19;100314.94;;;5.52;85.73
43364;BME280;40636;52.424;-1.948;2024-01-06T11:02:46;100321.03;;;5.56;85.45
43364;BME280;40636;52.424;-1.948;2024-01-06T11:05:14;100321.94;;;5.59;85.38
43364;BME280;40636;52.424;-1.948;2024-01-06T11:07:42;100321.94;;;5.59;85.28
43364;BME280;40636;52.424;-1.948;2024-01-06T11:10:15;100321.94;;;5.59;85.02
43364;BME280;40636;52.424;-1.948;2024-01-06T11:12:43;100321.94;;;5.59;84.99
43364;BME280;40636;52.424;-1.948;2024-01-06T11:15:10;100323.69;;;5.60;84.85
43364;BME280;40636;52.424;-1.948;2024-01-06T11:17:53;100311.66;;;5.61;84.75
43364;BME280;40636;52.424;-1.948;2024-01-06T11:20:22;100322.84;;;5.63;84.67
43364;BME280;40636;52.424;-1.948;2024-01-06T11:22:50;100316.03;;;5.65;84.57
43364;BME280;40636;52.424;-1.948;2024-01-06T11:25:19;100327.28;;;5.70;84.82
43364;BME280;40636;52.424;-1.948;2024-01-06T11:27:48;100321.31;;;5.74;84.65
43364;BME280;40636;52.424;-1.948;2024-01-06T11:30:25;100320.59;;;5.81;84.87
43364;BME280;40636;52.424;-1.948;2024-01-06T11:32:54;100325.84;;;5.86;84.54
43364;BME280;40636;52.424;-1.948;2024-01-06T11:35:27;100325.84;;;5.86;84.37
43364;BME280;40636;52.424;-1.948;2024-01-06T11:37:55;100325.06;;;5.90;84.35
43364;BME280;40636;52.424;-1.948;2024-01-06T11:40:36;100331.97;;;5.92;84.15
43364;BME280;40636;52.424;-1.948;2024-01-06T11:43:05;100329.38;;;5.91;83.83
43364;BME280;40636;52.424;-1.948;2024-01-06T11:45:34;100328.56;;;5.93;83.78
43364;BME280;40636;52.424;-1.948;2024-01-06T11:48:03;100319.25;;;6.03;83.75
43364;BME280;40636;52.424;-1.948;2024-01-06T11:50:33;100327.06;;;6.09;83.94
43364;BME280;40636;52.424;-1.948;2024-01-06T11:53:00;100324.50;;;6.11;83.53
43364;BME280;40636;52.424;-1.948;2024-01-06T11:55:28;100333.06;;;6.07;83.02
43364;BME280;40636;52.424;-1.948;2024-01-06T11:57:55;100329.59;;;6.05;82.56
43364;BME280;40636;52.424;-1.948;2024-01-06T12:00:24;100320.16;;;6.07;83.02
43364;BME280;40636;52.424;-1.948;2024-01-06T12:02:58;100314.97;;;6.05;82.61
43364;BME280;40636;52.424;-1.948;2024-01-06T12:05:25;100320.13;;;6.05;82.85
43364;BME280;40636;52.424;-1.948;2024-01-06T12:07:54;100314.13;;;6.06;82.79
43364;BME280;40636;52.424;-1.948;2024-01-06T12:10:24;100318.50;;;6.10;82.91
43364;BME280;40636;52.424;-1.948;2024-01-06T12:13:02;100315.97;;;6.13;82.80
43364;BME280;40636;52.424;-1.948;2024-01-06T12:15:31;100313.34;;;6.10;82.38
43364;BME280;40636;52.424;-1.948;2024-01-06T12:18:01;100318.47;;;6.09;82.54
43364;BME280;40636;52.424;-1.948;2024-01-06T12:20:29;100318.50;;;6.12;82.73
43364;BME280;40636;52.424;-1.948;2024-01-06T12:22:56;100322.84;;;6.14;83.00
43364;BME280;40636;52.424;-1.948;2024-01-06T12:25:24;100321.06;;;6.10;82.34
43364;BME280;40636;52.424;-1.948;2024-01-06T12:27:52;100313.25;;;6.06;81.97
43364;BME280;40636;52.424;-1.948;2024-01-06T12:30:22;100322.72;;;6.05;82.20
43364;BME280;40636;52.424;-1.948;2024-01-06T12:32:50;100319.25;;;6.03;82.05
43364;BME280;40636;52.424;-1.948;2024-01-06T12:35:20;100319.25;;;6.03;82.61
43364;BME280;40636;52.424;-1.948;2024-01-06T12:37:51;100323.59;;;6.06;82.74
43364;BME280;40636;52.424;-1.948;2024-01-06T12:40:19;100327.91;;;6.07;82.49
43364;BME280;40636;52.424;-1.948;2024-01-06T12:42:48;100321.91;;;6.08;82.69
43364;BME280;40636;52.424;-1.948;2024-01-06T12:45:14;100318.44;;;6.07;82.59
43364;BME280;40636;52.424;-1.948;2024-01-06T12:47:44;100325.31;;;6.07;82.72
43364;BME280;40636;52.424;-1.948;2024-01-06T12:50:11;100324.53;;;6.12;83.27
43364;BME280;40636;52.424;-1.948;2024-01-06T12:52:38;100333.22;;;6.19;82.88
43364;BME280;40636;52.424;-1.948;2024-01-06T12:55:06;100328.19;;;6.28;83.44
43364;BME280;40636;52.424;-1.948;2024-01-06T12:57:34;100329.97;;;6.32;83.12